Time;durP1;ratioP1;P1;durP2;ratioP2;P2;SDS_P1;SDS_P2;PMS_P1;PMS_P2;Temp;Humidity;BMP_temperature;BMP_pressure;BME280_temperature;BME280_humidity;BME280_pressure;Samples;Min_cycle;Max_cycle;Signal;HPM_P1;HPM_P2
2022/08/17 00:01:03;;;;;;;19.05;9.40;;;;;;;20.68;78.26;99729.61;1451437;89;22899;-86
2022/08/17 00:03:38;;;;;;;16.40;10.18;;;;;;;20.64;79.23;99735.17;1452370;89;21501;-85
2022/08/17 00:06:16;;;;;;;16.00;7.90;;;;;;;20.62;79.48;99731.88;1428259;89;21958;-85
2022/08/17 00:08:50;;;;;;;14.47;8.98;;;;;;;20.60;79.40;99730.47;1440756;89;21460;-88
2022/08/17 00:11:31;;;;;;;12.35;8.48;;;;;;;20.60;79.19;99735.34;1449958;88;22344;-87
2022/08/17 00:14:02;;;;;;;12.70;9.45;;;;;;;20.59;79.94;99737.72;1443922;88;22396;-86
2022/08/17 00:16:37;;;;;;;11.50;9.05;;;;;;;20.59;79.53;99739.06;1439594;89;22286;-86
2022/08/17 00:19:07;;;;;;;17.67;10.00;;;;;;;20.59;79.39;99735.03;1443970;89;22545;-86
2022/08/17 00:21:36;;;;;;;14.93;9.43;;;;;;;20.58;79.31;99730.72;1448863;89;21679;-86
2022/08/17 00:24:03;;;;;;;12.75;9.35;;;;;;;20.57;79.48;99729.59;1436388;90;22187;-87
2022/08/17 00:26:29;;;;;;;11.80;9.60;;;;;;;20.56;79.77;99723.40;1449449;90;21465;-85
2022/08/17 00:28:56;;;;;;;11.33;8.75;;;;;;;20.56;79.93;99722.05;1456703;89;21604;-85
2022/08/17 00:31:23;;;;;;;13.53;8.75;;;;;;;20.56;80.04;99728.78;1451769;88;21441;-85
2022/08/17 00:33:49;;;;;;;11.40;10.18;;;;;;;20.51;80.27;99732.64;1451170;88;22407;-87
2022/08/17 00:36:16;;;;;;;12.70;10.08;;;;;;;20.46;80.01;99728.50;1460727;88;21478;-86
2022/08/17 00:38:43;;;;;;;13.88;10.18;;;;;;;20.45;79.62;99725.50;1434390;89;21530;-86
2022/08/17 00:41:14;;;;;;;16.52;9.58;;;;;;;20.37;80.70;99723.12;1438511;89;21428;-86
2022/08/17 00:43:48;;;;;;;13.13;9.63;;;;;;;20.30;80.97;99720.55;1452203;89;21501;-86
2022/08/17 00:46:32;;;;;;;13.50;8.55;;;;;;;20.29;80.65;99713.02;1440832;89;23548;-85
2022/08/17 00:48:58;;;;;;;14.30;9.18;;;;;;;20.30;80.85;99716.52;1441966;88;21507;-84
2022/08/17 00:51:36;;;;;;;13.58;9.60;;;;;;;20.31;80.96;99720.02;1439213;89;22328;-84
2022/08/17 00:54:17;;;;;;;10.70;8.55;;;;;;;20.32;80.93;99720.33;1468910;88;21590;-84
2022/08/17 00:56:52;;;;;;;10.95;9.75;;;;;;;20.25;81.02;99726.63;1434504;88;22506;-84
2022/08/17 00:59:23;;;;;;;12.10;8.73;;;;;;;20.19;80.55;99732.88;1442892;89;21493;-83
2022/08/17 01:01:51;;;;;;;11.83;9.18;;;;;;;20.18;80.35;99731.25;1441993;89;21611;-85
2022/08/17 01:04:19;;;;;;;13.53;9.60;;;;;;;20.20;80.73;99731.04;1438543;90;21597;-86
2022/08/17 01:06:48;;;;;;;14.07;9.38;;;;;;;20.20;81.06;99734.54;1446760;89;21568;-86
2022/08/17 01:09:17;;;;;;;15.50;9.10;;;;;;;20.19;81.37;99734.22;1441391;89;22273;-86
2022/08/17 01:11:45;;;;;;;10.78;9.63;;;;;;;20.23;81.12;99736.77;1440078;89;21538;-86
2022/08/17 01:14:12;;;;;;;14.28;10.48;;;;;;;20.23;81.28;99739.45;1466099;89;22293;-88
2022/08/17 01:16:38;;;;;;;20.97;11.30;;;;;;;20.13;80.64;99733.80;1438805;89;21473;-88
2022/08/17 01:19:16;;;;;;;13.13;10.82;;;;;;;20.09;80.37;99731.80;1463825;88;21500;-89
2022/08/17 01:22:03;;;;;;;16.23;9.53;;;;;;;20.00;80.74;99738.83;1446292;89;21415;-89
2022/08/17 01:24:30;;;;;;;12.03;8.98;;;;;;;19.93;80.93;99739.95;1457429;88;22358;-86
2022/08/17 01:26:56;;;;;;;15.23;9.48;;;;;;;19.80;81.07;99744.96;1450001;89;21463;-86
2022/08/17 01:29:23;;;;;;;12.53;9.95;;;;;;;19.72;82.48;99746.60;1439635;89;21464;-85
2022/08/17 01:31:56;;;;;;;13.05;10.18;;;;;;;19.70;82.00;99743.31;1438059;90;21582;-85
2022/08/17 01:34:26;;;;;;;14.55;10.63;;;;;;;19.70;81.84;99740.10;1461673;89;21547;-86
2022/08/17 01:36:53;;;;;;;11.80;8.73;;;;;;;19.65;83.21;99734.61;1430162;90;22492;-85
2022/08/17 01:39:27;;;;;;;15.75;9.80;;;;;;;19.63;82.71;99730.47;1438486;90;21508;-86
2022/08/17 01:41:59;;;;;;;13.45;10.60;;;;;;;19.59;82.79;99737.62;1440307;89;21627;-86
2022/08/17 01:44:26;;;;;;;16.20;10.23;;;;;;;19.55;82.37;99742.31;1441429;89;21493;-86
2022/08/17 01:46:52;;;;;;;17.00;10.00;;;;;;;19.49;83.21;99739.18;1446765;89;21503;-88
2022/08/17 01:49:19;;;;;;;14.73;10.23;;;;;;;19.47;83.57;99735.89;1439774;89;22061;-88
2022/08/17 01:51:45;;;;;;;15.93;10.32;;;;;;;19.48;83.35;99734.34;1439192;90;21658;-88
2022/08/17 01:54:16;;;;;;;15.30;9.73;;;;;;;19.51;83.64;99736.58;1440566;89;21643;-89
2022/08/17 01:56:48;;;;;;;14.80;9.65;;;;;;;19.57;83.51;99737.55;1458175;88;21705;-89
2022/08/17 01:59:17;;;;;;;16.02;12.25;;;;;;;19.59;83.71;99734.09;1452693;88;21570;-88
2022/08/17 02:01:44;;;;;;;11.13;10.03;;;;;;;19.59;83.28;99735.44;1458755;89;21508;-87
2022/08/17 02:04:11;;;;;;;14.53;11.40;;;;;;;19.55;83.77;99735.08;1478303;88;22454;-87
2022/08/17 02:06:42;;;;;;;14.67;10.27;;;;;;;19.50;84.19;99727.39;1451439;89;21515;-87
2022/08/17 02:09:08;;;;;;;;;;;;;;;19.48;83.75;99736.18;1427392;90;21682;-87
2022/08/17 02:11:37;;;;;;;12.00;10.57;;;;;;;19.45;85.16;99732.60;1436323;90;20301;-86
2022/08/17 02:14:07;;;;;;;17.73;10.10;;;;;;;19.44;84.86;99731.78;1454484;89;21611;-87
2022/08/17 02:16:37;;;;;;;13.05;10.00;;;;;;;19.46;84.88;99732.92;1461596;88;21598;-87
2022/08/17 02:19:09;;;;;;;13.40;9.58;;;;;;;19.47;84.45;99735.89;1459391;88;21508;-87
2022/08/17 02:21:37;;;;;;;18.00;10.03;;;;;;;19.47;84.45;99726.50;1442203;90;22559;-87
2022/08/17 02:24:07;;;;;;;12.77;9.93;;;;;;;19.45;84.52;99725.40;1448885;89;21548;-87
2022/08/17 02:26:33;;;;;;;10.80;9.55;;;;;;;19.41;84.29;99724.70;1444628;89;21560;-88
2022/08/17 02:28:59;;;;;;;13.80;11.57;;;;;;;19.35;83.73;99729.91;1475135;88;22306;-87
2022/08/17 02:31:26;;;;;;;15.40;10.10;;;;;;;19.32;83.54;99737.59;1447320;89;21523;-87
2022/08/17 02:33:52;;;;;;;13.33;9.80;;;;;;;19.26;84.56;99744.66;1438339;89;21655;-87
2022/08/17 02:36:18;;;;;;;12.43;10.03;;;;;;;19.20;84.84;99748.23;1450319;89;21433;-87
2022/08/17 02:38:44;;;;;;;17.15;10.10;;;;;;;19.16;84.22;99747.02;1449806;89;22685;-86
2022/08/17 02:41:11;;;;;;;16.40;9.60;;;;;;;19.15;84.43;99745.38;1456751;88;21522;-86
2022/08/17 02:43:37;;;;;;;18.10;10.73;;;;;;;19.16;84.17;99747.02;1454706;89;21544;-85
2022/08/17 02:46:03;;;;;;;13.30;10.90;;;;;;;19.15;83.62;99757.45;1448450;89;21513;-85
2022/08/17 02:48:30;;;;;;;14.53;11.23;;;;;;;19.09;84.23;99767.72;1444959;89;21620;-86
2022/08/17 02:50:56;;;;;;;15.73;10.57;;;;;;;18.94;84.54;99763.50;1455533;89;21548;-86
2022/08/17 02:53:22;;;;;;;12.93;10.53;;;;;;;18.86;86.14;99770.47;1441083;90;21746;-86
2022/08/17 02:55:48;;;;;;;15.97;10.63;;;;;;;18.82;86.11;99766.59;1463158;88;21486;-86
2022/08/17 02:58:16;;;;;;;18.33;11.53;;;;;;;18.77;86.51;99765.08;1456629;89;22315;-86
2022/08/17 03:00:47;;;;;;;12.97;9.97;;;;;;;18.80;85.95;99757.94;1451938;89;21507;-86
2022/08/17 03:03:19;;;;;;;16.27;9.93;;;;;;;18.82;86.26;99757.22;1439127;89;21486;-86
2022/08/17 03:05:52;;;;;;;17.43;10.53;;;;;;;18.83;86.20;99771.44;1434480;90;21590;-86
2022/08/17 03:08:19;;;;;;;12.27;10.10;;;;;;;18.83;86.46;99766.07;1461342;89;21456;-86
2022/08/17 03:10:45;;;;;;;15.63;11.00;;;;;;;18.81;86.59;99768.95;1461816;88;22439;-85
2022/08/17 03:13:13;;;;;;;15.23;11.20;;;;;;;18.76;86.09;99766.13;1440968;90;21590;-85
2022/08/17 03:15:43;;;;;;;19.93;11.60;;;;;;;18.77;85.67;99765.08;1454645;89;22416;-85
2022/08/17 03:18:12;;;;;;;16.93;11.38;;;;;;;18.75;86.61;99768.48;1440662;89;22484;-86
2022/08/17 03:20:39;;;;;;;12.03;10.03;;;;;;;18.72;87.09;99772.91;1439908;90;23018;-86
2022/08/17 03:23:05;;;;;;;17.83;10.63;;;;;;;18.72;86.98;99778.27;1441478;89;21486;-86
2022/08/17 03:25:37;;;;;;;12.20;9.53;;;;;;;18.74;87.17;99778.92;1440708;89;21545;-86
2022/08/17 03:28:05;;;;;;;13.93;10.50;;;;;;;18.77;87.00;99780.34;1448116;88;21516;-87
2022/08/17 03:30:32;;;;;;;17.57;10.77;;;;;;;18.81;86.75;99782.36;1433134;90;21516;-87
2022/08/17 03:33:01;;;;;;;13.37;9.80;;;;;;;18.85;86.53;99783.59;1436946;90;21628;-88
2022/08/17 03:35:31;;;;;;;15.50;11.70;;;;;;;18.86;86.56;99789.23;1446009;89;21486;-89
2022/08/17 03:37:59;;;;;;;15.50;11.68;;;;;;;18.86;86.37;99784.40;1436041;89;22434;-88
2022/08/17 03:40:25;;;;;;;13.63;10.90;;;;;;;18.83;87.19;99781.63;1441263;89;21493;-87
2022/08/17 03:42:53;;;;;;;14.30;10.77;;;;;;;18.82;86.95;99781.86;1463652;89;21566;-87
2022/08/17 03:56:43;;;;;;;18.23;10.70;;;;;;;18.82;87.62;99781.34;1428372;90;21620;-89
2022/08/17 03:59:20;;;;;;;16.63;10.43;;;;;;;18.80;87.69;99777.23;1432356;90;21489;-89
2022/08/17 04:01:51;;;;;;;15.30;11.67;;;;;;;18.79;87.21;99782.27;1444371;89;21584;-88
2022/08/17 04:04:17;;;;;;;13.87;11.80;;;;;;;18.78;87.54;99780.11;1456700;89;21511;-89
2022/08/17 04:06:45;;;;;;;21.73;11.63;;;;;;;18.78;87.47;99781.98;1453412;89;21523;-88
2022/08/17 04:09:11;;;;;;;14.70;11.03;;;;;;;18.79;87.54;99789.81;1465306;87;21517;-89
2022/08/17 04:11:38;;;;;;;18.67;11.07;;;;;;;18.82;87.51;99791.25;1459141;89;21465;-88
2022/08/17 04:14:05;;;;;;;18.57;11.17;;;;;;;18.85;87.47;99783.59;1462596;89;21591;-89
2022/08/17 04:16:34;;;;;;;17.93;11.40;;;;;;;18.90;87.33;99790.47;1482796;87;21441;-87
2022/08/17 04:19:02;;;;;;;21.83;11.03;;;;;;;18.93;87.37;99791.37;1478042;87;21548;-88
2022/08/17 04:21:29;;;;;;;18.37;11.85;;;;;;;19.01;87.21;99797.48;1466317;88;21472;-87
2022/08/17 04:23:56;;;;;;;14.00;10.77;;;;;;;19.07;87.31;99792.59;1467247;88;22460;-87
2022/08/17 04:26:23;;;;;;;24.43;11.40;;;;;;;19.14;87.20;99790.69;1459806;88;21552;-88
2022/08/17 04:28:51;;;;;;;20.63;12.00;;;;;;;19.20;86.93;99792.49;1467664;88;21515;-88
2022/08/17 04:31:17;;;;;;;26.50;11.80;;;;;;;19.24;87.25;99797.70;1469140;88;21648;-88
2022/08/17 04:33:44;;;;;;;25.43;12.40;;;;;;;19.29;87.01;99800.56;1461851;89;22616;-89
2022/08/17 04:36:14;;;;;;;23.35;11.85;;;;;;;19.38;86.99;99799.23;1466043;88;22424;-89
2022/08/17 04:38:44;;;;;;;17.60;12.78;;;;;;;19.47;87.06;99797.61;1447418;89;21479;-89
2022/08/17 04:43:58;;;;;;;21.42;11.57;;;;;;;19.64;86.82;99797.34;1450942;88;21575;-89
2022/08/17 04:46:31;;;;;;;16.65;12.98;;;;;;;19.74;86.03;99794.19;1458450;89;21626;-89
2022/08/17 04:49:00;;;;;;;23.47;11.85;;;;;;;19.84;85.70;99806.03;1466278;88;21523;-90
2022/08/17 04:51:32;;;;;;;23.05;12.33;;;;;;;19.91;85.37;99805.98;1457896;89;21610;-82
2022/08/17 04:54:03;;;;;;;23.27;11.08;;;;;;;20.02;85.51;99812.44;1453029;89;21597;-85
2022/08/17 04:56:31;;;;;;;16.48;12.03;;;;;;;20.08;85.19;99816.91;1459783;89;21678;-85
2022/08/17 04:59:03;;;;;;;16.42;12.35;;;;;;;20.19;85.07;99818.03;1462595;88;22387;-83
2022/08/17 05:01:33;;;;;;;14.98;11.55;;;;;;;20.29;84.96;99821.84;1423804;89;22432;-85
2022/08/17 05:04:04;;;;;;;20.20;12.68;;;;;;;20.40;84.72;99825.64;1455376;88;22468;-85
2022/08/17 05:06:30;;;;;;;20.93;12.27;;;;;;;20.52;84.26;99829.72;1471441;88;23504;-82
2022/08/17 05:08:58;;;;;;;19.85;12.70;;;;;;;20.61;83.80;99824.34;1459259;89;21494;-86
2022/08/17 05:11:26;;;;;;;15.63;13.32;;;;;;;20.68;83.41;99826.94;1469311;88;22352;-89
2022/08/17 05:13:54;;;;;;;19.25;14.07;;;;;;;20.71;83.33;99829.16;1461862;88;23602;-88
2022/08/17 05:16:23;;;;;;;24.67;13.98;;;;;;;20.76;83.43;99831.18;1457894;88;22424;-88
2022/08/17 05:18:50;;;;;;;20.10;12.95;;;;;;;20.84;83.69;99827.64;1443348;90;21568;-88
2022/08/17 05:21:17;;;;;;;23.55;13.28;;;;;;;20.95;83.62;99836.80;1433823;88;21627;-90
2022/08/17 05:23:44;;;;;;;19.45;13.50;;;;;;;21.05;83.24;99835.70;1455675;89;21633;-88
2022/08/17 05:26:14;;;;;;;18.50;14.43;;;;;;;21.14;82.77;99837.00;1466341;89;22645;-88
2022/08/17 05:28:40;;;;;;;24.70;16.27;;;;;;;21.22;82.14;99837.73;1441487;90;22506;-89
2022/08/17 05:31:07;;;;;;;20.25;14.40;;;;;;;21.33;81.87;99839.62;1439656;90;22461;-88
2022/08/17 05:33:37;;;;;;;19.25;13.43;;;;;;;21.43;81.42;99841.75;1457050;89;21456;-90
2022/08/17 05:36:07;;;;;;;16.45;13.05;;;;;;;21.51;81.36;99838.72;1437309;90;22381;-91
2022/08/17 05:38:34;;;;;;;18.07;14.13;;;;;;;21.61;81.21;99845.17;1434889;88;21480;-90
2022/08/17 05:41:04;;;;;;;27.87;15.03;;;;;;;21.73;80.84;99841.66;1463344;88;21626;-91
2022/08/17 05:43:32;;;;;;;;;;;;;;;21.75;79.28;99847.10;1463257;89;21477;-91
2022/08/17 05:46:19;;;;;;;14.20;12.70;;;;;;;21.83;78.67;99844.03;1444464;89;20291;-89
2022/08/17 05:48:50;;;;;;;20.17;13.20;;;;;;;21.95;78.11;99853.47;1456895;89;21995;-90
2022/08/17 05:51:47;;;;;;;26.87;15.90;;;;;;;22.06;75.54;99859.88;1446125;89;22656;-90
2022/08/17 05:54:52;;;;;;;19.12;12.65;;;;;;;22.12;75.62;99857.58;1462586;89;21552;-91
2022/08/17 05:57:33;;;;;;;21.07;11.15;;;;;;;22.28;76.39;99852.02;1413445;90;21464;-91
2022/08/17 06:00:17;;;;;;;23.98;11.60;;;;;;;22.47;75.98;99848.10;1396825;91;21627;-91
2022/08/17 06:03:08;;;;;;;18.67;10.40;;;;;;;22.64;75.37;99845.97;1432609;90;21617;-90
2022/08/17 06:05:42;;;;;;;15.40;11.25;;;;;;;22.71;72.92;99837.22;1454360;90;22341;-91
2022/08/17 06:08:41;;;;;;;18.15;12.03;;;;;;;22.84;72.72;99850.39;1447359;89;22624;-91
2022/08/17 06:11:40;;;;;;;18.77;13.18;;;;;;;22.96;72.76;99845.80;1452604;90;21551;-90
2022/08/17 06:14:40;;;;;;;18.12;10.80;;;;;;;23.13;72.85;99849.03;1450441;90;21556;-92
2022/08/17 06:17:12;;;;;;;18.35;10.60;;;;;;;23.30;72.02;99852.55;1449246;90;21498;-92
2022/08/17 06:19:59;;;;;;;21.33;11.20;;;;;;;23.46;71.44;99846.06;1452080;89;21535;-94
2022/08/17 06:22:33;;;;;;;21.35;9.80;;;;;;;23.51;69.84;99848.85;1436492;90;21432;-92
2022/08/17 06:25:07;;;;;;;14.03;9.30;;;;;;;23.60;69.60;99843.31;1438890;91;21535;-92
2022/08/17 06:27:45;;;;;;;13.68;8.68;;;;;;;23.72;69.07;99845.41;1438442;91;21468;-94
2022/08/17 06:30:16;;;;;;;17.80;10.18;;;;;;;23.86;68.53;99843.17;1430835;91;21455;-92
2022/08/17 06:32:46;;;;;;;13.22;8.55;;;;;;;24.02;68.06;99842.30;1440988;90;21550;-93
2022/08/17 06:35:17;;;;;;;15.68;9.25;;;;;;;24.17;67.52;99843.05;1483899;85;21845;-92
2022/08/17 06:38:10;;;;;;;19.32;8.90;;;;;;;24.20;65.93;99842.55;1484033;85;22533;-92
2022/08/17 06:40:56;;;;;;;19.17;9.75;;;;;;;24.37;66.40;99841.13;1499855;86;22572;-93
2022/08/17 06:43:52;;;;;;;15.23;8.03;;;;;;;24.48;65.97;99838.02;1510570;85;21499;-93
2022/08/17 06:46:35;;;;;;;14.75;8.73;;;;;;;24.65;65.87;99844.15;1481174;85;22472;-93
2022/08/17 06:49:24;;;;;;;16.10;9.25;;;;;;;24.69;63.40;99847.19;1464882;89;21605;-94
2022/08/17 06:52:15;;;;;;;14.68;9.13;;;;;;;24.83;64.77;99852.98;1430026;89;22537;-92
2022/08/17 06:55:09;;;;;;;16.20;9.33;;;;;;;24.87;62.83;99852.77;1461545;89;21525;-93
2022/08/17 06:57:39;;;;;;;13.60;8.38;;;;;;;24.94;63.03;99853.37;1466094;89;21459;-92
2022/08/17 07:00:15;;;;;;;16.97;8.55;;;;;;;25.08;63.34;99851.06;1458062;89;21524;-91
2022/08/17 07:03:05;;;;;;;14.10;8.05;;;;;;;25.23;63.00;99855.28;1463945;89;21502;-93
2022/08/17 07:05:49;;;;;;;17.77;9.35;;;;;;;25.38;62.89;99851.90;1456911;89;21460;-91
2022/08/17 07:08:36;;;;;;;14.40;8.68;;;;;;;25.52;62.17;99857.16;1451129;89;21487;-92
2022/08/17 07:11:11;;;;;;;11.48;9.23;;;;;;;25.65;62.31;99848.55;1465990;89;21970;-88
2022/08/17 07:14:21;;;;;;;15.72;8.93;;;;;;;25.69;61.47;99848.03;1459303;89;21474;-88
2022/08/17 07:16:55;;;;;;;16.23;9.28;;;;;;;25.65;60.82;99845.84;1462753;89;21632;-88
2022/08/17 07:19:26;;;;;;;14.98;8.93;;;;;;;25.77;60.97;99846.19;1433152;90;22712;-88
2022/08/17 07:22:33;;;;;;;19.12;9.75;;;;;;;25.91;60.94;99850.09;1448196;89;21513;-89
2022/08/17 07:25:04;;;;;;;14.60;9.83;;;;;;;25.97;60.32;99850.39;1445188;89;21430;-90
2022/08/17 07:27:41;;;;;;;16.23;9.75;;;;;;;26.03;60.15;99848.53;1456968;89;21539;-89
2022/08/17 07:30:25;;;;;;;25.60;9.13;;;;;;;26.08;60.09;99851.27;1470559;89;21466;-87
2022/08/17 07:33:11;;;;;;;20.25;9.88;;;;;;;26.21;59.67;99851.31;1435226;90;22293;-88
2022/08/17 07:35:41;;;;;;;15.98;8.73;;;;;;;26.28;58.86;99858.68;1434255;90;21495;-88
2022/08/17 07:38:11;;;;;;;;;;;;;;;26.34;58.55;99857.07;1439623;91;21550;-89
2022/08/17 07:41:00;;;;;;;22.35;9.43;;;;;;;26.48;59.05;99856.59;1412852;92;20394;-87
2022/08/17 07:43:36;;;;;;;16.57;9.68;;;;;;;26.60;59.21;99845.52;1446374;90;21606;-89
2022/08/17 07:49:16;;;;;;;16.40;8.88;;;;;;;26.88;58.38;99849.11;1448316;90;21459;-87
2022/08/17 07:51:49;;;;;;;15.65;8.73;;;;;;;26.99;58.24;99847.23;1449635;89;22376;-87
2022/08/17 07:54:35;;;;;;;16.82;8.98;;;;;;;26.96;57.70;99847.77;1457979;90;21607;-87
2022/08/17 07:57:13;;;;;;;22.00;9.53;;;;;;;26.92;55.86;99847.47;1442563;90;21622;-87
2022/08/17 07:59:43;;;;;;;15.00;8.48;;;;;;;27.02;57.35;99857.55;1445898;89;21438;-88
2022/08/17 08:02:39;;;;;;;10.88;8.28;;;;;;;27.01;56.34;99856.70;1454262;89;21532;-88
2022/08/17 08:05:22;;;;;;;11.22;8.55;;;;;;;27.09;56.81;99855.91;1451791;89;21519;-88
2022/08/17 08:08:02;;;;;;;13.95;9.20;;;;;;;27.17;56.38;99860.84;1445423;90;21475;-88
2022/08/17 08:10:40;;;;;;;17.02;7.83;;;;;;;27.22;55.54;99859.49;1456899;90;21599;-88
2022/08/17 08:13:28;;;;;;;13.65;8.18;;;;;;;27.29;55.01;99858.66;1454718;90;21489;-89
2022/08/17 08:16:23;;;;;;;16.65;8.40;;;;;;;27.39;54.39;99864.10;1451843;89;21764;-88
2022/08/17 08:18:54;;;;;;;11.45;8.23;;;;;;;27.48;55.27;99862.17;1461729;89;21422;-87
2022/08/17 08:21:50;;;;;;;15.05;10.00;;;;;;;27.27;53.27;99866.80;1458044;89;21539;-88
2022/08/17 08:24:37;;;;;;;20.65;10.13;;;;;;;27.26;54.28;99857.84;1459547;89;21493;-87
2022/08/17 08:27:17;;;;;;;16.35;10.60;;;;;;;27.32;54.46;99861.38;1462317;89;21488;-85
2022/08/17 08:30:11;;;;;;;27.32;8.88;;;;;;;27.29;53.93;99864.09;1479411;88;21646;-84
2022/08/17 08:33:16;;;;;;;14.03;9.28;;;;;;;27.43;54.50;99858.93;1429993;90;21416;-84
2022/08/17 08:35:55;;;;;;;17.32;10.20;;;;;;;27.52;53.63;99857.28;1439048;89;21414;-84
2022/08/17 08:38:45;;;;;;;16.85;9.98;;;;;;;27.74;54.44;99863.78;1455334;89;21444;-84
2022/08/17 08:41:38;;;;;;;21.62;10.13;;;;;;;27.93;53.46;99864.03;1456126;89;21507;-85
2022/08/17 08:44:15;;;;;;;12.98;9.18;;;;;;;28.02;53.04;99862.36;1450686;89;21585;-84
2022/08/17 08:47:02;;;;;;;18.05;9.05;;;;;;;28.19;53.14;99859.31;1430770;91;22433;-84
2022/08/17 08:49:51;;;;;;;17.65;10.25;;;;;;;28.32;53.65;99855.20;1442678;91;21507;-84
2022/08/17 08:52:38;;;;;;;15.03;8.35;;;;;;;28.53;52.87;99862.73;1445989;89;22041;-84
2022/08/17 08:55:13;;;;;;;17.12;9.85;;;;;;;28.63;51.72;99857.25;1465218;89;21685;-84
2022/08/17 08:58:05;;;;;;;14.28;10.08;;;;;;;28.61;50.98;99862.16;1459304;88;22479;-84
2022/08/17 09:00:35;;;;;;;19.87;10.48;;;;;;;28.82;51.53;99860.66;1453283;90;22538;-84
2022/08/17 09:03:34;;;;;;;13.93;8.50;;;;;;;28.88;49.95;99865.78;1403915;91;21678;-84
2022/08/17 09:06:18;;;;;;;13.13;9.00;;;;;;;28.96;49.34;99861.66;1437217;90;21598;-84
2022/08/17 09:09:14;;;;;;;20.97;10.32;;;;;;;29.13;50.98;99860.74;1416579;91;21435;-84
2022/08/17 09:12:07;;;;;;;19.62;9.48;;;;;;;29.28;49.63;99868.53;1424969;90;21455;-84
2022/08/17 09:15:16;;;;;;;19.30;8.58;;;;;;;29.42;49.55;99861.31;1433897;90;21434;-83
2022/08/17 09:17:48;;;;;;;26.33;9.43;;;;;;;29.52;49.11;99865.85;1438031;91;21582;-83
2022/08/17 09:20:28;;;;;;;14.58;8.80;;;;;;;29.65;49.15;99858.41;1461597;89;21617;-83
2022/08/17 09:23:12;;;;;;;21.40;9.73;;;;;;;29.63;48.00;99868.22;1457776;89;22351;-82
2022/08/17 09:25:48;;;;;;;16.73;8.05;;;;;;;29.65;48.54;99865.22;1427710;89;21600;-82
2022/08/17 09:28:19;;;;;;;23.00;9.10;;;;;;;29.82;48.69;99863.42;1435835;89;21591;-82
2022/08/17 09:30:50;;;;;;;11.40;8.35;;;;;;;30.07;48.81;99869.15;1458770;89;21452;-83
2022/08/17 09:33:21;;;;;;;18.85;8.20;;;;;;;30.30;48.75;99868.91;1461198;89;21474;-83
2022/08/17 09:35:53;;;;;;;11.22;8.38;;;;;;;30.36;46.34;99866.36;1455531;89;21588;-83
2022/08/17 09:38:40;;;;;;;29.02;8.78;;;;;;;30.44;47.13;99862.98;1458464;89;21527;-83
2022/08/17 09:41:40;;;;;;;16.48;8.03;;;;;;;30.47;46.87;99867.86;1448263;89;21415;-82
2022/08/17 09:44:35;;;;;;;14.40;9.13;;;;;;;30.58;46.66;99869.88;1457794;89;21637;-83
2022/08/17 09:47:13;;;;;;;15.48;8.05;;;;;;;30.77;46.65;99876.72;1451461;89;21592;-82
2022/08/17 09:50:03;;;;;;;13.38;7.47;;;;;;;30.64;45.01;99869.25;1460280;89;21470;-83
2022/08/17 09:52:30;;;;;;;16.15;7.58;;;;;;;30.74;44.92;99871.30;1455840;89;21510;-83
2022/08/17 09:55:00;;;;;;;18.48;8.38;;;;;;;30.76;44.47;99866.91;1458236;89;21400;-83
2022/08/17 09:57:49;;;;;;;;;;;;;;;30.85;45.49;99875.28;1468438;88;21491;-83
2022/08/17 10:00:22;;;;;;;;;;;;;;;30.98;44.12;99870.42;1452851;88;20401;-82
2022/08/17 10:03:08;;;;;;;14.63;7.92;;;;;;;30.86;43.35;99863.24;1439856;90;20280;-83
2022/08/17 10:06:03;;;;;;;13.35;8.35;;;;;;;31.01;44.66;99869.83;1452679;90;21460;-83
2022/08/17 10:09:06;;;;;;;17.05;8.33;;;;;;;31.17;43.94;99864.38;1458753;89;21539;-83
2022/08/17 10:15:08;;;;;;;20.17;7.90;;;;;;;31.09;43.78;99856.86;1458980;88;22376;-84
2022/08/17 10:18:20;;;;;;;16.73;7.50;;;;;;;31.24;43.66;99857.97;1445831;88;21489;-82
2022/08/17 10:26:54;;;;;;;28.27;8.05;;;;;;;31.51;42.88;99853.73;1428890;88;21592;-83
2022/08/17 10:29:42;;;;;;;27.45;7.55;;;;;;;31.69;43.00;99850.66;1459512;89;21548;-82
2022/08/17 10:32:12;;;;;;;22.58;7.62;;;;;;;31.42;40.86;99854.98;1451537;89;21437;-82
2022/08/17 10:34:47;;;;;;;16.40;7.30;;;;;;;31.37;41.84;99860.53;1442902;89;21525;-82
2022/08/17 10:37:39;;;;;;;10.60;6.92;;;;;;;31.42;40.41;99855.54;1460297;88;21494;-82
2022/08/17 10:40:49;;;;;;;20.30;7.67;;;;;;;31.52;41.41;99859.44;1450306;90;21466;-82
2022/08/17 10:43:43;;;;;;;13.70;7.50;;;;;;;31.68;42.03;99858.06;1460075;89;22413;-82
2022/08/17 10:46:36;;;;;;;13.72;7.20;;;;;;;31.48;40.96;99854.34;1464582;89;21661;-82
2022/08/17 10:49:20;;;;;;;15.20;6.67;;;;;;;31.21;41.49;99849.00;1457277;89;21466;-82
2022/08/17 10:51:53;;;;;;;10.50;7.05;;;;;;;31.23;41.14;99852.25;1451722;89;21556;-83
2022/08/17 10:54:45;;;;;;;13.70;7.25;;;;;;;31.36;41.70;99839.78;1456226;89;22344;-79
2022/08/17 10:57:32;;;;;;;17.27;7.53;;;;;;;31.41;40.64;99841.03;1458547;89;22405;-79
2022/08/17 11:00:09;;;;;;;16.10;7.55;;;;;;;31.44;40.58;99838.26;1437905;90;21614;-79
2022/08/17 11:02:53;;;;;;;16.73;6.53;;;;;;;31.56;41.63;99840.50;1462474;89;21517;-79
2022/08/17 11:05:43;;;;;;;18.52;6.97;;;;;;;31.58;40.35;99837.73;1453716;89;21510;-82
2022/08/17 11:08:44;;;;;;;18.42;7.80;;;;;;;31.63;41.04;99838.20;1453256;89;22136;-83
2022/08/17 11:11:42;;;;;;;16.93;7.97;;;;;;;31.67;40.06;99837.84;1451269;89;21584;-82
2022/08/17 11:14:38;;;;;;;17.73;7.25;;;;;;;31.72;40.43;99832.27;1457061;89;21473;-83
2022/08/17 11:17:28;;;;;;;11.38;6.42;;;;;;;31.69;40.01;99836.98;1457375;89;22361;-84
2022/08/17 11:20:09;;;;;;;15.85;7.62;;;;;;;31.83;39.26;99835.07;1465772;89;21673;-82
2022/08/17 11:23:07;;;;;;;14.85;8.00;;;;;;;31.93;40.26;99829.17;1458490;89;21628;-81
2022/08/17 11:25:46;;;;;;;15.85;7.35;;;;;;;32.17;40.24;99824.30;1460260;89;21731;-81
2022/08/17 11:28:20;;;;;;;9.40;6.70;;;;;;;32.42;39.91;99826.22;1462434;89;22383;-81
2022/08/17 11:31:10;;;;;;;13.68;8.28;;;;;;;32.36;39.04;99829.06;1456605;89;21525;-81
2022/08/17 11:33:51;;;;;;;13.85;7.37;;;;;;;32.43;39.30;99819.08;1447678;89;21635;-81
2022/08/17 11:36:35;;;;;;;12.73;7.67;;;;;;;32.48;38.87;99822.27;1460715;89;22443;-81
2022/08/17 11:39:29;;;;;;;11.73;6.25;;;;;;;32.42;37.75;99821.55;1459248;89;22448;-81
2022/08/17 11:42:06;;;;;;;14.85;7.97;;;;;;;32.65;38.24;99818.87;1457555;89;21488;-81
2022/08/17 11:44:47;;;;;;;19.23;6.20;;;;;;;32.57;38.11;99810.83;1440376;88;21534;-83
2022/08/17 11:53:42;;;;;;;24.72;11.83;;;;;;;32.44;38.92;99813.03;1436570;91;21779;-82
2022/08/17 11:56:44;;;;;;;12.18;7.03;;;;;;;32.57;38.63;99815.77;1441379;90;22105;-81
2022/08/17 11:59:32;;;;;;;12.63;7.45;;;;;;;32.77;37.83;99819.97;1431644;89;23581;-83
2022/08/17 12:02:01;;;;;;;12.73;7.00;;;;;;;33.01;38.32;99807.91;1415010;88;21509;-83
2022/08/17 12:04:33;;;;;;;8.83;6.10;;;;;;;33.15;37.44;99804.53;1460471;89;21428;-84
2022/08/17 12:07:11;;;;;;;13.45;6.47;;;;;;;33.03;36.73;99808.39;1447718;89;21495;-83
2022/08/17 12:09:49;;;;;;;15.63;8.25;;;;;;;33.07;36.56;99809.40;1458031;87;21406;-83
2022/08/17 12:12:32;;;;;;;16.00;7.55;;;;;;;33.15;37.06;99807.28;1461679;87;21495;-83
2022/08/17 12:14:56;;;;;;;11.18;6.47;;;;;;;33.15;36.79;99799.62;1433321;90;21578;-83
2022/08/17 12:17:27;;;;;;;10.38;5.80;;;;;;;33.13;36.18;99798.55;1475091;87;21574;-84
2022/08/17 12:19:54;;;;;;;16.20;7.47;;;;;;;33.06;36.19;99800.94;1455231;87;21535;-83
2022/08/17 12:22:34;;;;;;;15.03;7.12;;;;;;;33.17;36.95;99791.30;1454542;87;22345;-82
2022/08/17 12:25:14;;;;;;;22.65;6.90;;;;;;;33.35;36.91;99786.74;1411403;90;22475;-82
2022/08/17 12:27:48;;;;;;;11.85;6.70;;;;;;;33.59;35.21;99786.38;1409608;92;22432;-82
2022/08/17 12:30:19;;;;;;;16.00;6.87;;;;;;;33.53;35.81;99782.17;1394029;94;21608;-82
2022/08/17 12:32:47;;;;;;;11.65;6.90;;;;;;;33.56;35.89;99786.22;1434507;91;21460;-83
2022/08/17 12:35:28;;;;;;;11.63;6.58;;;;;;;33.66;35.67;99788.13;1441898;90;21510;-83
2022/08/17 12:37:59;;;;;;;12.78;6.70;;;;;;;33.74;34.95;99782.39;1438237;91;21573;-83
2022/08/17 12:40:31;;;;;;;12.88;6.75;;;;;;;33.89;36.11;99777.03;1433299;91;23041;-83